sensor_id;sensor_type;location;lat;lon;timestamp;temperature;humidity
7516;DHT22;3799;47.184;8.538;2023-11-22T00:00:53;7.60;99.90
7516;DHT22;3799;47.184;8.538;2023-11-22T00:03:23;7.80;99.90
7516;DHT22;3799;47.184;8.538;2023-11-22T00:05:56;7.80;99.90
7516;DHT22;3799;47.184;8.538;2023-11-22T00:08:25;7.80;99.90
7516;DHT22;3799;47.184;8.538;2023-11-22T00:10:53;7.70;99.90
7516;DHT22;3799;47.184;8.538;2023-11-22T00:13:21;7.70;99.90
7516;DHT22;3799;47.184;8.538;2023-11-22T00:15:48;7.70;99.90
7516;DHT22;3799;47.184;8.538;2023-11-22T00:18:20;7.70;99.90
7516;DHT22;3799;47.184;8.538;2023-11-22T00:20:47;7.50;99.90
7516;DHT22;3799;47.184;8.538;2023-11-22T00:23:16;7.30;99.90
7516;DHT22;3799;47.184;8.538;2023-11-22T00:25:43;7.60;99.90
7516;DHT22;3799;47.184;8.538;2023-11-22T00:28:13;7.50;99.90
7516;DHT22;3799;47.184;8.538;2023-11-22T00:30:40;7.30;99.90
7516;DHT22;3799;47.184;8.538;2023-11-22T00:33:10;7.50;99.90
7516;DHT22;3799;47.184;8.538;2023-11-22T00:35:38;7.70;99.90
7516;DHT22;3799;47.184;8.538;2023-11-22T00:38:06;7.40;99.90
7516;DHT22;3799;47.184;8.538;2023-11-22T00:40:33;7.60;99.90
7516;DHT22;3799;47.184;8.538;2023-11-22T00:43:00;7.70;99.90
7516;DHT22;3799;47.184;8.538;2023-11-22T00:45:27;7.60;99.90
7516;DHT22;3799;47.184;8.538;2023-11-22T00:47:55;7.60;99.90
7516;DHT22;3799;47.184;8.538;2023-11-22T00:50:22;7.70;99.90
7516;DHT22;3799;47.184;8.538;2023-11-22T00:52:50;7.40;99.90
7516;DHT22;3799;47.184;8.538;2023-11-22T00:55:22;7.70;99.90
7516;DHT22;3799;47.184;8.538;2023-11-22T00:57:49;7.70;99.90
7516;DHT22;3799;47.184;8.538;2023-11-22T01:00:17;7.70;99.90
7516;DHT22;3799;47.184;8.538;2023-11-22T01:02:44;7.40;99.90
7516;DHT22;3799;47.184;8.538;2023-11-22T01:05:12;7.50;99.90
7516;DHT22;3799;47.184;8.538;2023-11-22T01:07:40;7.70;99.90
7516;DHT22;3799;47.184;8.538;2023-11-22T01:10:14;7.60;99.90
7516;DHT22;3799;47.184;8.538;2023-11-22T01:12:42;7.60;99.90
7516;DHT22;3799;47.184;8.538;2023-11-22T01:15:10;7.60;99.90
7516;DHT22;3799;47.184;8.538;2023-11-22T01:17:41;7.70;99.90
7516;DHT22;3799;47.184;8.538;2023-11-22T01:20:09;7.70;99.90
7516;DHT22;3799;47.184;8.538;2023-11-22T01:22:40;7.80;99.90
7516;DHT22;3799;47.184;8.538;2023-11-22T01:25:09;7.60;99.90
7516;DHT22;3799;47.184;8.538;2023-11-22T01:27:36;7.60;99.90
7516;DHT22;3799;47.184;8.538;2023-11-22T01:30:05;7.80;99.90
7516;DHT22;3799;47.184;8.538;2023-11-22T01:32:34;7.60;99.90
7516;DHT22;3799;47.184;8.538;2023-11-22T01:35:02;7.70;99.90
7516;DHT22;3799;47.184;8.538;2023-11-22T01:37:29;7.80;99.90
7516;DHT22;3799;47.184;8.538;2023-11-22T01:39:56;7.80;99.90
7516;DHT22;3799;47.184;8.538;2023-11-22T01:42:24;7.50;99.90
7516;DHT22;3799;47.184;8.538;2023-11-22T01:44:52;7.70;99.90
7516;DHT22;3799;47.184;8.538;2023-11-22T01:47:22;7.90;99.90
7516;DHT22;3799;47.184;8.538;2023-11-22T01:49:50;7.80;99.90
7516;DHT22;3799;47.184;8.538;2023-11-22T01:52:17;7.90;99.90
7516;DHT22;3799;47.184;8.538;2023-11-22T01:54:45;7.70;99.90
7516;DHT22;3799;47.184;8.538;2023-11-22T01:57:15;7.80;99.90
7516;DHT22;3799;47.184;8.538;2023-11-22T01:59:45;7.70;99.90
7516;DHT22;3799;47.184;8.538;2023-11-22T02:02:14;7.80;99.90
7516;DHT22;3799;47.184;8.538;2023-11-22T02:04:44;7.80;99.90
7516;DHT22;3799;47.184;8.538;2023-11-22T02:07:13;7.90;99.90
7516;DHT22;3799;47.184;8.538;2023-11-22T02:09:41;7.50;99.90
7516;DHT22;3799;47.184;8.538;2023-11-22T02:12:11;7.50;99.90
7516;DHT22;3799;47.184;8.538;2023-11-22T02:14:42;7.40;99.90
7516;DHT22;3799;47.184;8.538;2023-11-22T02:17:12;7.80;99.90
7516;DHT22;3799;47.184;8.538;2023-11-22T02:19:39;7.90;99.90
7516;DHT22;3799;47.184;8.538;2023-11-22T02:22:07;7.60;99.90
7516;DHT22;3799;47.184;8.538;2023-11-22T02:24:34;7.90;99.90
7516;DHT22;3799;47.184;8.538;2023-11-22T02:27:01;7.60;99.90
7516;DHT22;3799;47.184;8.538;2023-11-22T02:29:28;7.90;99.90
7516;DHT22;3799;47.184;8.538;2023-11-22T02:31:56;7.60;99.90
7516;DHT22;3799;47.184;8.538;2023-11-22T02:34:23;7.80;99.90
7516;DHT22;3799;47.184;8.538;2023-11-22T02:36:51;7.60;99.90
7516;DHT22;3799;47.184;8.538;2023-11-22T02:39:47;8.00;99.90
7516;DHT22;3799;47.184;8.538;2023-11-22T02:42:16;7.80;99.90
7516;DHT22;3799;47.184;8.538;2023-11-22T02:44:44;7.70;99.90
7516;DHT22;3799;47.184;8.538;2023-11-22T02:47:11;8.00;99.90
7516;DHT22;3799;47.184;8.538;2023-11-22T02:49:38;7.80;99.90
7516;DHT22;3799;47.184;8.538;2023-11-22T02:52:06;7.90;99.90
7516;DHT22;3799;47.184;8.538;2023-11-22T02:54:35;8.00;99.90
7516;DHT22;3799;47.184;8.538;2023-11-22T02:57:03;7.70;99.90
7516;DHT22;3799;47.184;8.538;2023-11-22T02:59:30;8.00;99.90
7516;DHT22;3799;47.184;8.538;2023-11-22T03:01:58;7.80;99.90
7516;DHT22;3799;47.184;8.538;2023-11-22T03:04:26;7.60;99.90
7516;DHT22;3799;47.184;8.538;2023-11-22T03:06:53;7.60;99.90
7516;DHT22;3799;47.184;8.538;2023-11-22T03:09:20;7.70;99.90
7516;DHT22;3799;47.184;8.538;2023-11-22T03:11:50;7.60;99.90
7516;DHT22;3799;47.184;8.538;2023-11-22T03:14:17;7.80;99.90
7516;DHT22;3799;47.184;8.538;2023-11-22T03:16:47;8.00;99.90
7516;DHT22;3799;47.184;8.538;2023-11-22T03:19:14;7.90;99.90
7516;DHT22;3799;47.184;8.538;2023-11-22T03:21:42;7.90;99.90
7516;DHT22;3799;47.184;8.538;2023-11-22T03:24:11;7.60;99.90
7516;DHT22;3799;47.184;8.538;2023-11-22T03:26:38;7.90;99.90
7516;DHT22;3799;47.184;8.538;2023-11-22T03:29:06;7.70;99.90
7516;DHT22;3799;47.184;8.538;2023-11-22T03:31:34;7.80;99.90
7516;DHT22;3799;47.184;8.538;2023-11-22T03:34:01;7.70;99.90
7516;DHT22;3799;47.184;8.538;2023-11-22T03:36:28;7.60;99.90
7516;DHT22;3799;47.184;8.538;2023-11-22T03:38:58;7.70;99.90
7516;DHT22;3799;47.184;8.538;2023-11-22T03:41:25;7.70;99.90
7516;DHT22;3799;47.184;8.538;2023-11-22T03:43:52;7.70;99.90
7516;DHT22;3799;47.184;8.538;2023-11-22T03:46:19;7.60;99.90
7516;DHT22;3799;47.184;8.538;2023-11-22T03:48:47;7.90;99.90
7516;DHT22;3799;47.184;8.538;2023-11-22T03:51:15;7.50;99.90
7516;DHT22;3799;47.184;8.538;2023-11-22T03:53:43;7.40;99.90
7516;DHT22;3799;47.184;8.538;2023-11-22T03:56:10;7.80;99.90
7516;DHT22;3799;47.184;8.538;2023-11-22T03:58:40;7.80;99.90
7516;DHT22;3799;47.184;8.538;2023-11-22T04:01:07;7.70;99.90
7516;DHT22;3799;47.184;8.538;2023-11-22T04:03:35;7.70;99.90
7516;DHT22;3799;47.184;8.538;2023-11-22T04:06:02;7.60;99.90
7516;DHT22;3799;47.184;8.538;2023-11-22T04:08:30;7.70;99.90
7516;DHT22;3799;47.184;8.538;2023-11-22T04:10:57;7.90;99.90
7516;DHT22;3799;47.184;8.538;2023-11-22T04:13:25;7.60;99.90
7516;DHT22;3799;47.184;8.538;2023-11-22T04:15:52;7.50;99.90
7516;DHT22;3799;47.184;8.538;2023-11-22T04:18:20;7.50;99.90
7516;DHT22;3799;47.184;8.538;2023-11-22T04:20:48;7.90;99.90
7516;DHT22;3799;47.184;8.538;2023-11-22T04:23:16;7.50;99.90
7516;DHT22;3799;47.184;8.538;2023-11-22T04:25:43;7.80;99.90
7516;DHT22;3799;47.184;8.538;2023-11-22T04:28:11;7.60;99.90
7516;DHT22;3799;47.184;8.538;2023-11-22T04:30:39;7.60;99.90
7516;DHT22;3799;47.184;8.538;2023-11-22T04:33:07;7.90;99.90
7516;DHT22;3799;47.184;8.538;2023-11-22T04:35:34;7.80;99.90
7516;DHT22;3799;47.184;8.538;2023-11-22T04:38:04;7.70;99.90
7516;DHT22;3799;47.184;8.538;2023-11-22T04:40:31;7.80;99.90
7516;DHT22;3799;47.184;8.538;2023-11-22T04:42:59;7.90;99.90
7516;DHT22;3799;47.184;8.538;2023-11-22T04:45:26;7.70;99.90
7516;DHT22;3799;47.184;8.538;2023-11-22T04:47:56;7.60;99.90
7516;DHT22;3799;47.184;8.538;2023-11-22T04:50:27;7.60;99.90
7516;DHT22;3799;47.184;8.538;2023-11-22T04:52:55;7.30;99.90
7516;DHT22;3799;47.184;8.538;2023-11-22T04:55:23;7.40;99.90
7516;DHT22;3799;47.184;8.538;2023-11-22T04:57:50;7.50;99.90
7516;DHT22;3799;47.184;8.538;2023-11-22T05:00:18;7.60;99.90
7516;DHT22;3799;47.184;8.538;2023-11-22T05:02:45;7.80;99.90
7516;DHT22;3799;47.184;8.538;2023-11-22T05:05:12;7.70;99.90
7516;DHT22;3799;47.184;8.538;2023-11-22T05:07:40;7.70;99.90
7516;DHT22;3799;47.184;8.538;2023-11-22T05:10:08;7.50;99.90
7516;DHT22;3799;47.184;8.538;2023-11-22T05:12:37;7.60;99.90
7516;DHT22;3799;47.184;8.538;2023-11-22T05:15:08;7.40;99.90
7516;DHT22;3799;47.184;8.538;2023-11-22T05:17:36;7.40;99.90
7516;DHT22;3799;47.184;8.538;2023-11-22T05:20:05;7.50;99.90
7516;DHT22;3799;47.184;8.538;2023-11-22T05:22:33;7.60;99.90
7516;DHT22;3799;47.184;8.538;2023-11-22T05:25:00;7.40;99.90
7516;DHT22;3799;47.184;8.538;2023-11-22T05:27:28;7.60;99.90
7516;DHT22;3799;47.184;8.538;2023-11-22T05:29:56;7.40;99.90
7516;DHT22;3799;47.184;8.538;2023-11-22T05:32:23;7.50;99.90
7516;DHT22;3799;47.184;8.538;2023-11-22T05:34:51;7.70;99.90
7516;DHT22;3799;47.184;8.538;2023-11-22T05:37:20;7.50;99.90
7516;DHT22;3799;47.184;8.538;2023-11-22T05:39:50;7.40;99.90
7516;DHT22;3799;47.184;8.538;2023-11-22T05:42:18;7.40;99.90
7516;DHT22;3799;47.184;8.538;2023-11-22T05:44:45;7.60;99.90
7516;DHT22;3799;47.184;8.538;2023-11-22T05:47:13;7.40;99.90
7516;DHT22;3799;47.184;8.538;2023-11-22T05:49:41;7.60;99.90
7516;DHT22;3799;47.184;8.538;2023-11-22T05:52:08;7.30;99.90
7516;DHT22;3799;47.184;8.538;2023-11-22T05:54:36;7.40;99.90
7516;DHT22;3799;47.184;8.538;2023-11-22T05:57:04;7.60;99.90
7516;DHT22;3799;47.184;8.538;2023-11-22T05:59:32;7.30;99.90
7516;DHT22;3799;47.184;8.538;2023-11-22T06:02:04;7.40;99.90
7516;DHT22;3799;47.184;8.538;2023-11-22T06:04:37;7.30;99.90
7516;DHT22;3799;47.184;8.538;2023-11-22T06:07:08;7.50;99.90
7516;DHT22;3799;47.184;8.538;2023-11-22T06:09:35;7.50;99.90
7516;DHT22;3799;47.184;8.538;2023-11-22T06:12:05;7.40;99.90
7516;DHT22;3799;47.184;8.538;2023-11-22T06:14:35;7.50;99.90
7516;DHT22;3799;47.184;8.538;2023-11-22T06:17:05;7.30;99.90
7516;DHT22;3799;47.184;8.538;2023-11-22T06:19:36;7.50;99.90
7516;DHT22;3799;47.184;8.538;2023-11-22T06:22:04;7.30;99.90
7516;DHT22;3799;47.184;8.538;2023-11-22T06:24:34;7.30;99.90
7516;DHT22;3799;47.184;8.538;2023-11-22T06:27:13;7.40;99.90
7516;DHT22;3799;47.184;8.538;2023-11-22T06:29:51;7.30;99.90
7516;DHT22;3799;47.184;8.538;2023-11-22T06:32:19;7.60;99.90
7516;DHT22;3799;47.184;8.538;2023-11-22T06:34:46;7.40;99.90
7516;DHT22;3799;47.184;8.538;2023-11-22T06:37:16;7.30;99.90
7516;DHT22;3799;47.184;8.538;2023-11-22T06:39:44;7.70;99.90
7516;DHT22;3799;47.184;8.538;2023-11-22T06:42:14;7.30;99.90
7516;DHT22;3799;47.184;8.538;2023-11-22T06:44:41;7.60;99.90
7516;DHT22;3799;47.184;8.538;2023-11-22T06:47:09;7.40;99.90
7516;DHT22;3799;47.184;8.538;2023-11-22T06:49:37;7.50;99.90
7516;DHT22;3799;47.184;8.538;2023-11-22T06:52:04;7.40;99.90
7516;DHT22;3799;47.184;8.538;2023-11-22T06:54:31;7.40;99.90
7516;DHT22;3799;47.184;8.538;2023-11-22T06:56:58;7.30;99.90
7516;DHT22;3799;47.184;8.538;2023-11-22T06:59:25;7.30;99.90
7516;DHT22;3799;47.184;8.538;2023-11-22T07:01:53;7.50;99.90
7516;DHT22;3799;47.184;8.538;2023-11-22T07:04:20;7.30;99.90
7516;DHT22;3799;47.184;8.538;2023-11-22T07:06:49;7.40;99.90
7516;DHT22;3799;47.184;8.538;2023-11-22T07:09:16;7.50;99.90
7516;DHT22;3799;47.184;8.538;2023-11-22T07:11:45;7.30;99.90
7516;DHT22;3799;47.184;8.538;2023-11-22T07:14:12;7.40;99.90
7516;DHT22;3799;47.184;8.538;2023-11-22T07:16:41;7.40;99.90
7516;DHT22;3799;47.184;8.538;2023-11-22T07:19:08;7.40;99.90
7516;DHT22;3799;47.184;8.538;2023-11-22T07:21:35;7.40;99.90
7516;DHT22;3799;47.184;8.538;2023-11-22T07:24:05;7.50;99.90
7516;DHT22;3799;47.184;8.538;2023-11-22T07:26:33;7.50;99.90
7516;DHT22;3799;47.184;8.538;2023-11-22T07:29:01;7.30;99.90
7516;DHT22;3799;47.184;8.538;2023-11-22T07:31:28;7.30;99.90
7516;DHT22;3799;47.184;8.538;2023-11-22T07:33:56;7.50;99.90
7516;DHT22;3799;47.184;8.538;2023-11-22T07:36:24;7.30;99.90
7516;DHT22;3799;47.184;8.538;2023-11-22T07:38:51;7.40;99.90
7516;DHT22;3799;47.184;8.538;2023-11-22T07:41:20;7.60;99.90
7516;DHT22;3799;47.184;8.538;2023-11-22T07:43:48;7.40;99.90
7516;DHT22;3799;47.184;8.538;2023-11-22T07:46:16;7.50;99.90
7516;DHT22;3799;47.184;8.538;2023-11-22T07:48:44;7.50;99.90
7516;DHT22;3799;47.184;8.538;2023-11-22T07:51:14;7.30;99.90
7516;DHT22;3799;47.184;8.538;2023-11-22T07:53:45;7.30;99.90
7516;DHT22;3799;47.184;8.538;2023-11-22T07:56:12;7.60;99.90
7516;DHT22;3799;47.184;8.538;2023-11-22T07:58:42;7.40;99.90
7516;DHT22;3799;47.184;8.538;2023-11-22T08:01:10;7.30;99.90
7516;DHT22;3799;47.184;8.538;2023-11-22T08:03:40;7.70;99.90
7516;DHT22;3799;47.184;8.538;2023-11-22T08:06:15;7.50;99.90
7516;DHT22;3799;47.184;8.538;2023-11-22T08:08:43;7.70;99.90
7516;DHT22;3799;47.184;8.538;2023-11-22T08:11:13;7.60;99.90
7516;DHT22;3799;47.184;8.538;2023-11-22T08:13:45;7.30;99.90
7516;DHT22;3799;47.184;8.538;2023-11-22T08:16:12;7.40;99.90
7516;DHT22;3799;47.184;8.538;2023-11-22T08:18:40;7.50;99.90
7516;DHT22;3799;47.184;8.538;2023-11-22T08:21:11;7.30;99.90
7516;DHT22;3799;47.184;8.538;2023-11-22T08:23:38;7.30;99.90
7516;DHT22;3799;47.184;8.538;2023-11-22T08:26:06;7.40;99.90
7516;DHT22;3799;47.184;8.538;2023-11-22T08:28:35;7.50;99.90
7516;DHT22;3799;47.184;8.538;2023-11-22T08:31:03;7.40;99.90
7516;DHT22;3799;47.184;8.538;2023-11-22T08:33:31;7.30;99.90
7516;DHT22;3799;47.184;8.538;2023-11-22T08:35:58;7.40;99.90
7516;DHT22;3799;47.184;8.538;2023-11-22T08:38:28;7.60;99.90
7516;DHT22;3799;47.184;8.538;2023-11-22T08:40:55;7.50;99.90
7516;DHT22;3799;47.184;8.538;2023-11-22T08:43:23;7.40;99.90
7516;DHT22;3799;47.184;8.538;2023-11-22T08:45:52;7.80;99.90
7516;DHT22;3799;47.184;8.538;2023-11-22T08:48:35;7.70;99.90
7516;DHT22;3799;47.184;8.538;2023-11-22T08:51:05;7.30;99.90
7516;DHT22;3799;47.184;8.538;2023-11-22T08:53:35;7.60;99.90
7516;DHT22;3799;47.184;8.538;2023-11-22T08:56:02;7.30;99.90
7516;DHT22;3799;47.184;8.538;2023-11-22T08:58:33;7.80;99.90
7516;DHT22;3799;47.184;8.538;2023-11-22T09:01:01;7.60;99.90
7516;DHT22;3799;47.184;8.538;2023-11-22T09:03:31;7.80;99.90
7516;DHT22;3799;47.184;8.538;2023-11-22T09:06:00;7.60;99.90
7516;DHT22;3799;47.184;8.538;2023-11-22T09:08:27;7.60;99.90
7516;DHT22;3799;47.184;8.538;2023-11-22T09:10:57;7.60;99.90
7516;DHT22;3799;47.184;8.538;2023-11-22T09:13:25;7.50;99.90
7516;DHT22;3799;47.184;8.538;2023-11-22T09:15:52;7.30;99.90
7516;DHT22;3799;47.184;8.538;2023-11-22T09:18:20;7.60;99.90
7516;DHT22;3799;47.184;8.538;2023-11-22T09:20:48;7.30;99.90
7516;DHT22;3799;47.184;8.538;2023-11-22T09:23:19;7.60;99.90
7516;DHT22;3799;47.184;8.538;2023-11-22T09:25:50;7.70;99.90
7516;DHT22;3799;47.184;8.538;2023-11-22T09:28:18;7.90;99.90
7516;DHT22;3799;47.184;8.538;2023-11-22T09:30:48;7.80;99.90
7516;DHT22;3799;47.184;8.538;2023-11-22T09:33:17;7.50;99.90
7516;DHT22;3799;47.184;8.538;2023-11-22T09:35:46;7.80;99.90
7516;DHT22;3799;47.184;8.538;2023-11-22T09:38:18;7.70;99.90
7516;DHT22;3799;47.184;8.538;2023-11-22T09:40:51;7.40;99.90
7516;DHT22;3799;47.184;8.538;2023-11-22T09:43:19;7.40;99.90
7516;DHT22;3799;47.184;8.538;2023-11-22T09:45:48;7.50;99.90
7516;DHT22;3799;47.184;8.538;2023-11-22T09:48:25;7.30;99.90
7516;DHT22;3799;47.184;8.538;2023-11-22T09:51:04;7.40;99.90
7516;DHT22;3799;47.184;8.538;2023-11-22T09:53:47;7.30;99.90
7516;DHT22;3799;47.184;8.538;2023-11-22T09:56:17;7.50;99.90
7516;DHT22;3799;47.184;8.538;2023-11-22T09:58:47;7.60;99.90
7516;DHT22;3799;47.184;8.538;2023-11-22T10:01:16;7.20;99.90
7516;DHT22;3799;47.184;8.538;2023-11-22T10:03:44;7.30;99.90
7516;DHT22;3799;47.184;8.538;2023-11-22T10:06:12;7.30;99.90
7516;DHT22;3799;47.184;8.538;2023-11-22T10:08:41;7.30;99.90
7516;DHT22;3799;47.184;8.538;2023-11-22T10:11:09;7.30;99.90
7516;DHT22;3799;47.184;8.538;2023-11-22T10:13:36;7.60;99.90
7516;DHT22;3799;47.184;8.538;2023-11-22T10:16:12;7.30;99.90
7516;DHT22;3799;47.184;8.538;2023-11-22T10:18:41;7.30;99.90
7516;DHT22;3799;47.184;8.538;2023-11-22T10:23:48;7.40;99.90
7516;DHT22;3799;47.184;8.538;2023-11-22T10:26:19;7.40;99.90
7516;DHT22;3799;47.184;8.538;2023-11-22T10:28:46;7.50;99.90
7516;DHT22;3799;47.184;8.538;2023-11-22T10:31:17;7.30;99.90
7516;DHT22;3799;47.184;8.538;2023-11-22T10:33:44;7.20;99.90
7516;DHT22;3799;47.184;8.538;2023-11-22T10:36:13;7.30;99.90
7516;DHT22;3799;47.184;8.538;2023-11-22T10:38:47;7.40;99.90
7516;DHT22;3799;47.184;8.538;2023-11-22T10:41:15;7.40;99.90
7516;DHT22;3799;47.184;8.538;2023-11-22T10:43:44;7.50;99.90
7516;DHT22;3799;47.184;8.538;2023-11-22T10:46:12;7.10;99.90
7516;DHT22;3799;47.184;8.538;2023-11-22T10:48:41;7.40;99.90
7516;DHT22;3799;47.184;8.538;2023-11-22T10:51:12;7.10;99.90
7516;DHT22;3799;47.184;8.538;2023-11-22T10:53:48;7.40;99.90
7516;DHT22;3799;47.184;8.538;2023-11-22T10:56:18;7.40;99.90
7516;DHT22;3799;47.184;8.538;2023-11-22T10:58:49;7.40;99.90
7516;DHT22;3799;47.184;8.538;2023-11-22T11:01:17;7.30;99.90
7516;DHT22;3799;47.184;8.538;2023-11-22T11:04:15;7.50;99.90
7516;DHT22;3799;47.184;8.538;2023-11-22T11:06:51;7.50;99.90
7516;DHT22;3799;47.184;8.538;2023-11-22T11:09:19;7.40;99.90
7516;DHT22;3799;47.184;8.538;2023-11-22T11:11:48;7.60;99.90
7516;DHT22;3799;47.184;8.538;2023-11-22T11:14:16;7.60;99.90
7516;DHT22;3799;47.184;8.538;2023-11-22T11:16:45;7.40;99.90
7516;DHT22;3799;47.184;8.538;2023-11-22T11:19:17;7.60;99.90
7516;DHT22;3799;47.184;8.538;2023-11-22T11:21:45;7.80;99.90
7516;DHT22;3799;47.184;8.538;2023-11-22T11:24:15;7.50;99.90
7516;DHT22;3799;47.184;8.538;2023-11-22T11:26:48;7.60;99.90
7516;DHT22;3799;47.184;8.538;2023-11-22T11:29:49;7.50;99.90
7516;DHT22;3799;47.184;8.538;2023-11-22T11:32:32;7.50;99.90
7516;DHT22;3799;47.184;8.538;2023-11-22T11:35:00;7.60;99.90
7516;DHT22;3799;47.184;8.538;2023-11-22T11:37:30;7.80;99.90
7516;DHT22;3799;47.184;8.538;2023-11-22T11:39:58;7.70;99.90
7516;DHT22;3799;47.184;8.538;2023-11-22T11:42:25;7.90;99.90
7516;DHT22;3799;47.184;8.538;2023-11-22T11:47:26;7.90;99.90
7516;DHT22;3799;47.184;8.538;2023-11-22T11:49:55;7.70;99.90
7516;DHT22;3799;47.184;8.538;2023-11-22T11:52:25;7.70;99.90
7516;DHT22;3799;47.184;8.538;2023-11-22T11:54:52;7.70;99.90
7516;DHT22;3799;47.184;8.538;2023-11-22T11:57:19;7.60;99.90
7516;DHT22;3799;47.184;8.538;2023-11-22T11:59:47;7.60;99.90
7516;DHT22;3799;47.184;8.538;2023-11-22T12:02:15;7.50;99.90
7516;DHT22;3799;47.184;8.538;2023-11-22T12:04:43;7.60;99.90
7516;DHT22;3799;47.184;8.538;2023-11-22T12:07:11;7.60;99.90
7516;DHT22;3799;47.184;8.538;2023-11-22T12:09:39;7.60;99.90
7516;DHT22;3799;47.184;8.538;2023-11-22T12:12:07;7.40;99.90
7516;DHT22;3799;47.184;8.538;2023-11-22T12:14:35;7.40;99.90
7516;DHT22;3799;47.184;8.538;2023-11-22T12:17:04;7.60;99.90
7516;DHT22;3799;47.184;8.538;2023-11-22T12:19:33;7.30;99.90
7516;DHT22;3799;47.184;8.538;2023-11-22T12:22:01;7.30;99.90
7516;DHT22;3799;47.184;8.538;2023-11-22T12:24:29;7.50;99.90
7516;DHT22;3799;47.184;8.538;2023-11-22T12:26:56;7.50;99.90
7516;DHT22;3799;47.184;8.538;2023-11-22T12:29:23;7.10;99.90
7516;DHT22;3799;47.184;8.538;2023-11-22T12:31:51;7.30;99.90
7516;DHT22;3799;47.184;8.538;2023-11-22T12:34:22;7.10;99.90
7516;DHT22;3799;47.184;8.538;2023-11-22T12:36:50;7.40;99.90
7516;DHT22;3799;47.184;8.538;2023-11-22T12:39:20;7.20;99.90
7516;DHT22;3799;47.184;8.538;2023-11-22T12:41:54;7.30;99.90
7516;DHT22;3799;47.184;8.538;2023-11-22T12:44:51;7.40;99.90
7516;DHT22;3799;47.184;8.538;2023-11-22T12:47:34;7.30;99.90
7516;DHT22;3799;47.184;8.538;2023-11-22T12:50:03;7.20;99.90
7516;DHT22;3799;47.184;8.538;2023-11-22T12:52:35;7.10;99.90
7516;DHT22;3799;47.184;8.538;2023-11-22T12:55:03;7.20;99.90
7516;DHT22;3799;47.184;8.538;2023-11-22T12:57:34;7.00;99.90
7516;DHT22;3799;47.184;8.538;2023-11-22T13:00:01;7.30;99.90
7516;DHT22;3799;47.184;8.538;2023-11-22T13:02:29;7.10;99.90
7516;DHT22;3799;47.184;8.538;2023-11-22T13:04:59;7.30;99.90
7516;DHT22;3799;47.184;8.538;2023-11-22T13:07:27;7.10;99.90
7516;DHT22;3799;47.184;8.538;2023-11-22T13:09:54;7.30;99.90
7516;DHT22;3799;47.184;8.538;2023-11-22T13:12:21;7.00;99.90
7516;DHT22;3799;47.184;8.538;2023-11-22T13:14:49;7.10;99.90
7516;DHT22;3799;47.184;8.538;2023-11-22T13:17:18;7.00;99.90
7516;DHT22;3799;47.184;8.538;2023-11-22T13:19:45;6.90;99.90
7516;DHT22;3799;47.184;8.538;2023-11-22T13:22:14;6.80;99.90
7516;DHT22;3799;47.184;8.538;2023-11-22T13:24:42;6.90;99.90
7516;DHT22;3799;47.184;8.538;2023-11-22T13:27:10;7.00;99.90
7516;DHT22;3799;47.184;8.538;2023-11-22T13:29:37;6.90;99.90
7516;DHT22;3799;47.184;8.538;2023-11-22T13:32:04;7.10;99.90
7516;DHT22;3799;47.184;8.538;2023-11-22T13:34:31;6.80;99.90
7516;DHT22;3799;47.184;8.538;2023-11-22T13:36:58;7.10;99.90
7516;DHT22;3799;47.184;8.538;2023-11-22T13:39:27;7.10;99.90
7516;DHT22;3799;47.184;8.538;2023-11-22T13:41:54;7.10;99.90
7516;DHT22;3799;47.184;8.538;2023-11-22T13:44:21;7.10;99.90
7516;DHT22;3799;47.184;8.538;2023-11-22T13:46:48;7.10;99.90
7516;DHT22;3799;47.184;8.538;2023-11-22T13:49:15;7.10;99.90
7516;DHT22;3799;47.184;8.538;2023-11-22T13:51:43;7.10;99.90
7516;DHT22;3799;47.184;8.538;2023-11-22T13:54:10;7.20;99.90
7516;DHT22;3799;47.184;8.538;2023-11-22T13:56:39;7.10;99.90
7516;DHT22;3799;47.184;8.538;2023-11-22T13:59:06;7.10;99.90
7516;DHT22;3799;47.184;8.538;2023-11-22T14:01:33;7.10;99.90
7516;DHT22;3799;47.184;8.538;2023-11-22T14:04:01;7.20;99.90
7516;DHT22;3799;47.184;8.538;2023-11-22T14:06:29;6.80;99.90
7516;DHT22;3799;47.184;8.538;2023-11-22T14:08:57;7.10;99.90
7516;DHT22;3799;47.184;8.538;2023-11-22T14:11:24;7.00;99.90
7516;DHT22;3799;47.184;8.538;2023-11-22T14:13:51;6.90;99.90
7516;DHT22;3799;47.184;8.538;2023-11-22T14:16:18;6.80;99.90
7516;DHT22;3799;47.184;8.538;2023-11-22T14:18:46;7.10;99.90
7516;DHT22;3799;47.184;8.538;2023-11-22T14:21:13;7.10;99.90
7516;DHT22;3799;47.184;8.538;2023-11-22T14:23:41;7.00;99.90
7516;DHT22;3799;47.184;8.538;2023-11-22T14:26:08;6.80;99.90
7516;DHT22;3799;47.184;8.538;2023-11-22T14:28:36;6.80;99.90
7516;DHT22;3799;47.184;8.538;2023-11-22T14:31:03;6.70;99.90
7516;DHT22;3799;47.184;8.538;2023-11-22T14:33:32;6.80;99.90
7516;DHT22;3799;47.184;8.538;2023-11-22T14:35:59;6.90;99.90
7516;DHT22;3799;47.184;8.538;2023-11-22T14:38:27;6.90;99.90
7516;DHT22;3799;47.184;8.538;2023-11-22T14:40:55;6.70;99.90
7516;DHT22;3799;47.184;8.538;2023-11-22T14:43:23;6.70;99.90
7516;DHT22;3799;47.184;8.538;2023-11-22T14:45:50;6.80;99.90
7516;DHT22;3799;47.184;8.538;2023-11-22T14:48:18;6.90;99.90
7516;DHT22;3799;47.184;8.538;2023-11-22T14:50:45;6.40;99.90
7516;DHT22;3799;47.184;8.538;2023-11-22T14:53:13;6.70;99.90
7516;DHT22;3799;47.184;8.538;2023-11-22T14:55:40;6.90;99.90
7516;DHT22;3799;47.184;8.538;2023-11-22T14:58:09;6.50;99.90
7516;DHT22;3799;47.184;8.538;2023-11-22T15:00:36;6.40;99.90
7516;DHT22;3799;47.184;8.538;2023-11-22T15:03:04;6.40;99.90
7516;DHT22;3799;47.184;8.538;2023-11-22T15:05:31;6.50;99.90
7516;DHT22;3799;47.184;8.538;2023-11-22T15:07:59;6.40;99.90
7516;DHT22;3799;47.184;8.538;2023-11-22T15:10:26;6.40;99.90
7516;DHT22;3799;47.184;8.538;2023-11-22T15:12:57;6.50;99.90
7516;DHT22;3799;47.184;8.538;2023-11-22T15:15:25;6.40;99.90
7516;DHT22;3799;47.184;8.538;2023-11-22T15:17:53;6.60;99.90
7516;DHT22;3799;47.184;8.538;2023-11-22T15:20:22;6.50;99.90
7516;DHT22;3799;47.184;8.538;2023-11-22T15:22:49;6.40;99.90
7516;DHT22;3799;47.184;8.538;2023-11-22T15:25:17;6.20;99.90
7516;DHT22;3799;47.184;8.538;2023-11-22T15:27:45;6.50;99.90
7516;DHT22;3799;47.184;8.538;2023-11-22T15:30:12;6.10;99.90
7516;DHT22;3799;47.184;8.538;2023-11-22T15:32:39;6.30;99.90
7516;DHT22;3799;47.184;8.538;2023-11-22T15:35:07;6.30;99.90
7516;DHT22;3799;47.184;8.538;2023-11-22T15:37:35;6.30;99.90
7516;DHT22;3799;47.184;8.538;2023-11-22T15:40:03;6.40;99.90
7516;DHT22;3799;47.184;8.538;2023-11-22T15:42:31;6.00;99.90
7516;DHT22;3799;47.184;8.538;2023-11-22T15:44:58;6.30;99.90
7516;DHT22;3799;47.184;8.538;2023-11-22T15:47:26;6.00;99.90
7516;DHT22;3799;47.184;8.538;2023-11-22T15:49:53;5.90;99.90
7516;DHT22;3799;47.184;8.538;2023-11-22T15:52:21;5.90;99.90
7516;DHT22;3799;47.184;8.538;2023-11-22T15:54:49;6.10;99.90
7516;DHT22;3799;47.184;8.538;2023-11-22T15:57:16;6.10;99.90
7516;DHT22;3799;47.184;8.538;2023-11-22T15:59:43;5.90;99.90
7516;DHT22;3799;47.184;8.538;2023-11-22T16:02:11;6.00;99.90
7516;DHT22;3799;47.184;8.538;2023-11-22T16:04:38;5.80;99.90
7516;DHT22;3799;47.184;8.538;2023-11-22T16:07:06;5.90;99.90
7516;DHT22;3799;47.184;8.538;2023-11-22T16:09:33;5.90;99.90
7516;DHT22;3799;47.184;8.538;2023-11-22T16:12:00;5.90;99.90
7516;DHT22;3799;47.184;8.538;2023-11-22T16:14:28;5.70;99.90
7516;DHT22;3799;47.184;8.538;2023-11-22T16:16:56;5.80;99.90
7516;DHT22;3799;47.184;8.538;2023-11-22T16:19:23;5.80;99.90
7516;DHT22;3799;47.184;8.538;2023-11-22T16:21:51;5.80;99.90
7516;DHT22;3799;47.184;8.538;2023-11-22T16:24:19;5.70;99.90
7516;DHT22;3799;47.184;8.538;2023-11-22T16:26:47;6.00;99.90
7516;DHT22;3799;47.184;8.538;2023-11-22T16:29:14;5.80;99.90
7516;DHT22;3799;47.184;8.538;2023-11-22T16:31:43;5.80;99.90